createdAt,value
2023-05-09T00:00:32.176Z,5.50
2023-05-09T00:03:33.646Z,5.43
2023-05-09T00:06:35.419Z,5.13
2023-05-09T00:09:36.897Z,5.18
2023-05-09T00:12:38.452Z,5.38
2023-05-09T00:15:39.951Z,5.45
2023-05-09T00:18:42.278Z,6.10
2023-05-09T00:21:43.828Z,4.90
2023-05-09T00:24:45.302Z,4.90
2023-05-09T00:27:46.766Z,5.25
2023-05-09T00:30:48.217Z,5.53
2023-05-09T00:33:49.705Z,5.95
2023-05-09T00:36:51.214Z,5.60
2023-05-09T00:39:52.647Z,5.18
2023-05-09T00:42:55.921Z,5.22
2023-05-09T00:45:57.731Z,4.80
2023-05-09T00:48:59.363Z,5.95
2023-05-09T00:52:02.230Z,5.72
2023-05-09T00:55:05.398Z,5.07
2023-05-09T00:58:06.880Z,5.53
2023-05-09T01:01:08.762Z,5.20
2023-05-09T01:04:11.364Z,5.57
2023-05-09T01:07:43.556Z,6.45
2023-05-09T01:11:01.208Z,5.82
2023-05-09T01:14:15.449Z,5.40
2023-05-09T01:17:32.346Z,5.43
2023-05-09T01:20:39.578Z,5.80
2023-05-09T01:23:44.241Z,4.72
2023-05-09T01:27:04.373Z,4.72
2023-05-09T01:30:09.147Z,5.30
2023-05-09T01:33:16.825Z,5.20
2023-05-09T01:36:21.398Z,5.78
2023-05-09T01:39:25.281Z,5.30
2023-05-09T01:42:30.830Z,5.57
2023-05-09T01:45:33.988Z,5.28
2023-05-09T01:48:37.829Z,4.88
2023-05-09T01:51:43.704Z,5.55
2023-05-09T01:54:48.122Z,5.40
2023-05-09T01:57:50.309Z,5.78
2023-05-09T02:00:52.856Z,4.95
2023-05-09T02:03:55.925Z,5.03
2023-05-09T02:06:58.894Z,5.28
2023-05-09T02:10:00.903Z,6.22
2023-05-09T02:13:02.420Z,5.45
2023-05-09T02:16:05.984Z,5.68
2023-05-09T02:19:07.888Z,5.90
2023-05-09T02:22:11.665Z,5.38
2023-05-09T02:25:17.117Z,6.07
2023-05-09T02:28:20.808Z,5.22
2023-05-09T02:31:23.987Z,5.65
2023-05-09T02:34:25.816Z,5.57
2023-05-09T02:37:28.000Z,6.53
2023-05-09T02:40:30.424Z,7.25
2023-05-09T02:43:31.943Z,6.93
2023-05-09T02:46:33.473Z,7.18
2023-05-09T02:49:35.001Z,6.72
2023-05-09T02:52:38.685Z,5.82
2023-05-09T02:55:40.200Z,5.53
2023-05-09T02:58:41.702Z,5.07
2023-05-09T03:01:43.204Z,5.53
2023-05-09T03:04:45.496Z,8.73
2023-05-09T03:07:47.320Z,7.50
2023-05-09T03:10:48.818Z,7.25
2023-05-09T03:13:50.957Z,7.55
2023-05-09T03:16:52.536Z,8.25
2023-05-09T03:20:02.384Z,7.63
2023-05-09T03:23:05.586Z,9.00
2023-05-09T03:26:07.097Z,9.88
2023-05-09T03:29:08.660Z,8.27
2023-05-09T03:32:10.170Z,7.25
2023-05-09T03:35:11.951Z,8.18
2023-05-09T03:38:13.444Z,7.97
2023-05-09T03:41:16.849Z,7.38
2023-05-09T03:44:20.525Z,7.57
2023-05-09T03:47:21.965Z,7.47
2023-05-09T03:50:24.046Z,6.85
2023-05-09T03:53:27.554Z,7.03
2023-05-09T03:56:29.848Z,7.28
2023-05-09T03:59:31.664Z,6.80
2023-05-09T04:02:34.406Z,6.55
2023-05-09T04:05:36.237Z,6.70
2023-05-09T04:08:39.651Z,5.75
2023-05-09T04:11:42.072Z,6.10
2023-05-09T04:14:48.895Z,6.40
2023-05-09T04:17:51.410Z,6.40
2023-05-09T04:20:53.525Z,5.70
2023-05-09T04:23:55.637Z,6.18
2023-05-09T04:27:04.892Z,6.00
2023-05-09T04:30:07.253Z,6.43
2023-05-09T04:33:09.392Z,5.30
2023-05-09T04:36:11.279Z,6.63
2023-05-09T04:39:13.295Z,6.20
2023-05-09T04:42:22.830Z,6.72
2023-05-09T04:45:24.448Z,6.68
2023-05-09T04:48:26.112Z,7.25
2023-05-09T04:51:27.566Z,6.53
2023-05-09T04:54:29.154Z,6.35
2023-05-09T04:57:30.851Z,6.03
2023-05-09T05:00:33.449Z,5.70
2023-05-09T05:03:35.025Z,6.40
2023-05-09T05:06:36.611Z,6.57
2023-05-09T05:09:39.056Z,6.45
2023-05-09T05:12:40.824Z,6.20
2023-05-09T05:15:45.310Z,6.95
2023-05-09T05:18:48.309Z,6.43
2023-05-09T05:21:50.659Z,7.20
2023-05-09T05:24:52.435Z,6.90
2023-05-09T05:27:54.283Z,5.72
2023-05-09T05:30:56.006Z,6.30
2023-05-09T05:33:57.542Z,6.10
2023-05-09T05:36:59.779Z,6.13
2023-05-09T05:40:01.461Z,6.93
2023-05-09T05:43:03.017Z,6.25
2023-05-09T05:46:06.286Z,7.05
2023-05-09T05:49:09.353Z,6.85
2023-05-09T05:52:10.851Z,6.53
2023-05-09T05:55:12.772Z,5.90
2023-05-09T05:58:14.692Z,6.07
2023-05-09T06:01:16.382Z,6.47
2023-05-09T06:04:18.083Z,6.72
2023-05-09T06:07:19.798Z,6.30
2023-05-09T06:10:21.596Z,6.22
2023-05-09T06:13:26.587Z,6.45
2023-05-09T06:16:35.416Z,6.60
2023-05-09T06:19:37.638Z,6.82
2023-05-09T06:22:39.500Z,6.30
2023-05-09T06:25:41.139Z,5.50
2023-05-09T06:28:42.614Z,6.30
2023-05-09T06:31:44.086Z,6.03
2023-05-09T06:34:45.630Z,5.68
2023-05-09T06:37:48.684Z,6.50
2023-05-09T06:40:50.800Z,6.72
2023-05-09T06:43:52.879Z,6.00
2023-05-09T06:46:54.433Z,5.32
2023-05-09T06:49:55.935Z,5.70
2023-05-09T06:52:57.410Z,6.05
2023-05-09T06:55:59.333Z,5.65
2023-05-09T06:59:00.891Z,6.28
2023-05-09T07:02:02.489Z,5.57
2023-05-09T07:05:04.293Z,5.70
2023-05-09T07:08:05.787Z,5.28
2023-05-09T07:11:07.270Z,5.93
2023-05-09T07:14:08.806Z,5.70
2023-05-09T07:17:22.134Z,5.28
2023-05-09T07:20:25.635Z,5.82
2023-05-09T07:23:27.118Z,5.80
2023-05-09T07:26:28.779Z,5.63
2023-05-09T07:29:30.288Z,5.43
2023-05-09T07:32:32.067Z,5.38
2023-05-09T07:35:33.602Z,5.97
2023-05-09T07:38:35.137Z,5.03
2023-05-09T07:41:36.574Z,5.22
2023-05-09T07:44:38.033Z,5.75
2023-05-09T07:47:39.598Z,5.53
2023-05-09T07:50:41.104Z,5.07
2023-05-09T07:53:42.619Z,5.60
2023-05-09T07:56:44.162Z,5.47
2023-05-09T07:59:45.612Z,5.88
2023-05-09T08:02:47.191Z,5.75
2023-05-09T08:05:48.819Z,6.13
2023-05-09T08:08:50.315Z,5.95
2023-05-09T08:11:52.074Z,6.18
2023-05-09T08:14:53.589Z,7.03
2023-05-09T08:18:10.024Z,6.40
2023-05-09T08:21:11.676Z,6.28
2023-05-09T08:24:13.540Z,6.15
2023-05-09T08:27:15.618Z,5.43
2023-05-09T08:30:17.266Z,5.60
2023-05-09T08:33:19.087Z,6.40
2023-05-09T08:36:20.635Z,6.30
2023-05-09T08:39:22.506Z,6.55
2023-05-09T08:42:26.636Z,6.53
2023-05-09T08:45:30.419Z,6.32
2023-05-09T08:48:36.011Z,5.95
2023-05-09T08:51:38.153Z,5.82
2023-05-09T08:54:40.059Z,5.07
2023-05-09T08:57:41.724Z,4.40
2023-05-09T09:00:43.416Z,5.57
2023-05-09T09:03:49.396Z,4.63
2023-05-09T09:06:53.700Z,4.45
2023-05-09T09:09:56.663Z,4.00
2023-05-09T09:12:59.808Z,4.33
2023-05-09T09:16:02.079Z,3.90
2023-05-09T09:19:09.048Z,3.33
2023-05-09T09:22:15.642Z,3.35
2023-05-09T09:25:17.304Z,3.25
2023-05-09T09:28:18.875Z,3.00
2023-05-09T09:31:28.278Z,3.35
2023-05-09T09:34:29.828Z,3.22
2023-05-09T09:37:34.326Z,2.92
2023-05-09T09:40:39.241Z,3.17
2023-05-09T09:43:46.089Z,3.40
2023-05-09T09:46:52.574Z,3.70
2023-05-09T09:49:54.070Z,3.35
2023-05-09T09:52:56.508Z,3.25
2023-05-09T09:55:58.455Z,3.67
2023-05-09T09:59:09.527Z,3.50
2023-05-09T10:02:12.513Z,3.75
2023-05-09T10:05:23.166Z,3.53
2023-05-09T10:08:24.907Z,4.47
2023-05-09T10:11:26.400Z,3.75
2023-05-09T10:14:28.029Z,3.70
2023-05-09T10:17:31.682Z,3.80
2023-05-09T10:23:38.338Z,4.00
2023-05-09T10:26:45.382Z,3.90
2023-05-09T10:29:52.107Z,4.00
2023-05-09T10:33:08.240Z,4.40
2023-05-09T10:36:10.529Z,4.13
2023-05-09T10:39:12.528Z,4.40
2023-05-09T10:42:14.386Z,5.13
2023-05-09T10:45:16.147Z,4.90
2023-05-09T10:48:18.385Z,4.55
2023-05-09T10:51:19.999Z,4.72
2023-05-09T10:54:31.063Z,5.03
2023-05-09T10:57:32.852Z,4.32
2023-05-09T11:00:34.430Z,4.80
2023-05-09T11:04:08.434Z,4.68
2023-05-09T11:07:26.928Z,5.07
2023-05-09T11:10:42.381Z,4.57
2023-05-09T11:13:46.334Z,4.35
2023-05-09T11:16:58.759Z,4.45
2023-05-09T11:20:03.718Z,4.25
2023-05-09T11:23:06.730Z,4.47
2023-05-09T11:26:09.099Z,4.68
2023-05-09T11:29:10.662Z,5.13
2023-05-09T11:32:15.746Z,4.60
2023-05-09T11:35:20.714Z,4.28
2023-05-09T11:38:23.018Z,4.43
2023-05-09T11:41:24.652Z,4.05
2023-05-09T11:44:28.098Z,4.63
2023-05-09T11:47:30.844Z,4.10
2023-05-09T11:50:32.752Z,3.70
2023-05-09T11:53:34.413Z,3.80
2023-05-09T11:56:39.649Z,4.00
2023-05-09T11:59:41.239Z,4.75
2023-05-09T12:02:44.378Z,4.20
2023-05-09T12:05:48.350Z,3.83
2023-05-09T12:08:49.951Z,3.92
2023-05-09T12:11:51.932Z,3.90
2023-05-09T12:14:53.412Z,4.18
2023-05-09T12:18:03.974Z,3.95
2023-05-09T12:21:07.187Z,4.00
2023-05-09T12:24:08.816Z,5.05
2023-05-09T12:27:10.496Z,4.38
2023-05-09T12:30:14.127Z,3.70
2023-05-09T12:36:17.608Z,3.72
2023-05-09T12:39:22.414Z,4.30
2023-05-09T12:42:26.780Z,3.97
2023-05-09T12:45:28.525Z,3.80
2023-05-09T12:48:35.156Z,4.05
2023-05-09T12:51:36.592Z,3.70
2023-05-09T12:54:38.091Z,3.85
2023-05-09T12:57:40.653Z,4.05
2023-05-09T13:00:43.996Z,3.80
2023-05-09T13:03:51.826Z,4.18
2023-05-09T13:06:55.709Z,3.50
2023-05-09T13:09:57.357Z,3.80
2023-05-09T13:12:58.937Z,3.55
2023-05-09T13:16:00.568Z,3.83
2023-05-09T13:19:02.261Z,3.70
2023-05-09T13:22:03.776Z,3.85
2023-05-09T13:25:06.132Z,3.63
2023-05-09T13:28:08.725Z,3.65
2023-05-09T13:31:10.428Z,3.80
2023-05-09T13:34:11.926Z,3.40
2023-05-09T13:37:13.470Z,3.22
2023-05-09T13:40:15.351Z,4.00
2023-05-09T13:43:17.173Z,3.75
2023-05-09T13:46:18.781Z,3.42
2023-05-09T13:49:20.380Z,3.80
2023-05-09T13:52:22.106Z,3.40
2023-05-09T13:55:25.942Z,3.67
2023-05-09T13:58:27.466Z,3.60
2023-05-09T14:01:28.990Z,3.75
2023-05-09T14:04:34.379Z,3.33
2023-05-09T14:07:36.202Z,4.10
2023-05-09T14:10:37.748Z,3.63
2023-05-09T14:13:39.290Z,3.60
2023-05-09T14:16:40.784Z,3.70
2023-05-09T14:19:42.319Z,3.35
2023-05-09T14:22:43.833Z,3.50
2023-05-09T14:25:45.338Z,4.18
2023-05-09T14:28:46.943Z,3.70
2023-05-09T14:31:48.434Z,4.40
2023-05-09T14:34:50.022Z,4.72
2023-05-09T14:37:51.490Z,3.85
2023-05-09T14:40:52.977Z,3.83
2023-05-09T14:43:54.486Z,4.47
2023-05-09T14:46:56.391Z,4.20
2023-05-09T14:49:57.873Z,4.20
2023-05-09T14:53:00.892Z,4.90
2023-05-09T14:56:02.511Z,4.70
2023-05-09T14:59:04.236Z,6.25
2023-05-09T15:02:05.757Z,5.63
2023-05-09T15:05:08.187Z,6.32
2023-05-09T15:08:09.660Z,7.32
2023-05-09T15:11:11.199Z,7.40
2023-05-09T15:14:12.755Z,9.07
2023-05-09T15:17:14.412Z,7.72
2023-05-09T15:20:18.170Z,7.07
2023-05-09T15:26:22.336Z,6.50
2023-05-09T15:29:23.758Z,7.07
2023-05-09T15:32:25.262Z,8.13
2023-05-09T15:35:26.874Z,7.43
2023-05-09T15:38:28.747Z,7.35
2023-05-09T15:41:30.540Z,7.43
2023-05-09T15:44:32.086Z,7.60
2023-05-09T15:47:33.812Z,7.75
2023-05-09T15:50:35.263Z,8.20
2023-05-09T15:53:36.852Z,7.78
2023-05-09T15:56:38.418Z,5.80
2023-05-09T15:59:40.118Z,5.82
2023-05-09T16:02:44.034Z,3.92
2023-05-09T16:05:45.882Z,3.92
2023-05-09T16:08:47.690Z,4.53
2023-05-09T16:11:49.178Z,4.45
2023-05-09T16:14:50.674Z,4.32
2023-05-09T16:17:52.224Z,3.92
2023-05-09T16:20:53.717Z,4.30
2023-05-09T16:23:57.768Z,4.05
2023-05-09T16:30:00.879Z,3.90
2023-05-09T16:33:02.484Z,3.50
2023-05-09T16:36:04.313Z,3.28
2023-05-09T16:39:05.890Z,3.38
2023-05-09T16:42:07.369Z,3.13
2023-05-09T16:45:09.096Z,3.10
2023-05-09T16:48:10.706Z,3.92
2023-05-09T16:51:12.277Z,3.15
2023-05-09T16:54:13.776Z,2.78
2023-05-09T16:57:15.213Z,3.42
2023-05-09T17:00:17.648Z,3.67
2023-05-09T17:03:19.255Z,3.88
2023-05-09T17:06:20.826Z,3.72
2023-05-09T17:09:22.514Z,4.20
2023-05-09T17:12:24.495Z,3.75
2023-05-09T17:15:26.865Z,4.50
2023-05-09T17:18:36.643Z,3.40
2023-05-09T17:21:41.731Z,3.58
2023-05-09T17:24:43.964Z,4.03
2023-05-09T17:27:45.669Z,4.63
2023-05-09T17:30:47.129Z,5.30
2023-05-09T17:33:48.681Z,6.38
2023-05-09T17:36:50.228Z,3.90
2023-05-09T17:39:51.825Z,4.07
2023-05-09T17:42:53.410Z,4.15
2023-05-09T17:45:55.140Z,3.63
2023-05-09T17:48:56.667Z,4.15
2023-05-09T17:51:58.475Z,4.18
2023-05-09T17:55:01.020Z,4.78
2023-05-09T17:58:02.505Z,4.75
2023-05-09T18:01:04.043Z,4.18
2023-05-09T18:04:06.327Z,4.50
2023-05-09T18:07:08.461Z,3.75
2023-05-09T18:10:10.390Z,4.20
2023-05-09T18:13:12.231Z,3.13
2023-05-09T18:16:13.872Z,3.67
2023-05-09T18:19:15.486Z,2.92
2023-05-09T18:22:19.219Z,3.22
2023-05-09T18:25:20.819Z,2.53
2023-05-09T18:28:25.649Z,3.10
2023-05-09T18:31:27.668Z,3.03
2023-05-09T18:34:30.284Z,2.80
2023-05-09T18:37:31.844Z,2.40
2023-05-09T18:40:33.408Z,3.35
2023-05-09T18:43:35.907Z,2.28
2023-05-09T18:46:37.960Z,2.47
2023-05-09T18:49:39.449Z,2.63
2023-05-09T18:52:41.057Z,1.73
2023-05-09T18:55:42.786Z,2.13
2023-05-09T18:58:44.447Z,2.03
2023-05-09T19:01:45.978Z,3.08
2023-05-09T19:04:48.111Z,3.13
2023-05-09T19:07:49.854Z,2.35
2023-05-09T19:10:51.362Z,2.42
2023-05-09T19:13:53.579Z,2.38
2023-05-09T19:16:55.090Z,1.92
2023-05-09T19:19:56.918Z,2.58
2023-05-09T19:22:58.993Z,2.50
2023-05-09T19:26:00.596Z,2.70
2023-05-09T19:29:07.626Z,2.33
2023-05-09T19:32:09.096Z,2.70
2023-05-09T19:35:10.902Z,2.22
2023-05-09T19:38:12.507Z,2.80
2023-05-09T19:41:14.066Z,3.05
2023-05-09T19:44:15.562Z,2.20
2023-05-09T19:47:17.042Z,2.80
2023-05-09T19:50:18.802Z,1.85
2023-05-09T19:53:20.352Z,1.85
2023-05-09T19:56:23.143Z,1.73
2023-05-09T19:59:24.697Z,1.23
2023-05-09T20:02:26.530Z,1.60
2023-05-09T20:05:28.129Z,1.20
2023-05-09T20:08:29.997Z,1.00
2023-05-09T20:11:31.616Z,1.40
2023-05-09T20:14:33.139Z,0.90
2023-05-09T20:17:34.729Z,0.77
2023-05-09T20:20:38.247Z,0.80
2023-05-09T20:23:39.801Z,0.50
2023-05-09T20:26:41.350Z,0.80
2023-05-09T20:29:42.989Z,1.40
2023-05-09T20:32:44.638Z,1.10
2023-05-09T20:35:49.175Z,0.80
2023-05-09T20:38:50.704Z,0.90
2023-05-09T20:41:52.332Z,0.85
2023-05-09T20:44:54.774Z,0.82
2023-05-09T20:47:56.596Z,0.77
2023-05-09T20:50:58.146Z,0.60
2023-05-09T20:54:00.035Z,0.88
2023-05-09T20:57:01.524Z,0.70
2023-05-09T21:00:03.832Z,1.33
2023-05-09T21:03:07.431Z,0.95
2023-05-09T21:06:09.138Z,0.50
2023-05-09T21:09:11.208Z,1.10
2023-05-09T21:12:12.703Z,0.68
2023-05-09T21:15:14.707Z,0.90
2023-05-09T21:18:16.526Z,1.08
2023-05-09T21:21:17.988Z,1.08
2023-05-09T21:24:19.463Z,0.70
2023-05-09T21:27:20.913Z,0.80
2023-05-09T21:30:22.510Z,0.70
2023-05-09T21:33:23.947Z,1.05
2023-05-09T21:36:25.693Z,0.70
2023-05-09T21:39:27.132Z,0.47
2023-05-09T21:42:28.549Z,1.10
2023-05-09T21:45:30.361Z,0.90
2023-05-09T21:48:31.848Z,0.70
2023-05-09T21:51:34.077Z,0.95
2023-05-09T21:54:35.582Z,0.90
2023-05-09T21:57:37.054Z,0.75
2023-05-09T22:00:38.563Z,0.70
2023-05-09T22:03:40.170Z,0.70
2023-05-09T22:06:42.690Z,0.88
2023-05-09T22:09:44.134Z,0.80
2023-05-09T22:12:46.007Z,0.70
2023-05-09T22:15:47.522Z,0.28
2023-05-09T22:18:49.102Z,0.57
2023-05-09T22:21:50.584Z,0.75
2023-05-09T22:24:52.201Z,1.00
2023-05-09T22:27:54.913Z,0.93
2023-05-09T22:30:56.940Z,0.90
2023-05-09T22:33:58.394Z,1.25
2023-05-09T22:36:59.800Z,0.90
2023-05-09T22:40:01.487Z,0.80
2023-05-09T22:43:03.341Z,0.88
2023-05-09T22:46:05.029Z,1.27
2023-05-09T22:49:06.844Z,1.08
2023-05-09T22:52:09.064Z,1.23
2023-05-09T22:55:11.310Z,0.90
2023-05-09T22:58:12.945Z,1.00
2023-05-09T23:01:14.413Z,1.33
2023-05-09T23:04:16.891Z,1.33
2023-05-09T23:07:18.382Z,1.58
2023-05-09T23:10:19.850Z,1.42
2023-05-09T23:13:21.369Z,1.20
2023-05-09T23:16:23.138Z,1.30
2023-05-09T23:19:24.884Z,1.17
2023-05-09T23:22:26.448Z,1.20
2023-05-09T23:25:27.906Z,1.48
2023-05-09T23:28:29.378Z,1.35
2023-05-09T23:31:30.942Z,1.70
2023-05-09T23:34:32.492Z,1.80
2023-05-09T23:37:34.079Z,0.80
2023-05-09T23:40:35.611Z,1.63
2023-05-09T23:43:37.686Z,1.38
2023-05-09T23:46:39.245Z,1.27
2023-05-09T23:49:41.191Z,1.80
2023-05-09T23:52:42.665Z,1.60
2023-05-09T23:55:44.167Z,1.50
2023-05-09T23:58:45.697Z,1.80
